sensor_id;sensor_type;location;lat;lon;timestamp;pressure;altitude;pressure_sealevel;temperature;humidity
40946;BME280;55635;50.264;11.918;2023-06-22T00:00:51;95928.72;;;21.44;78.70
40946;BME280;55635;50.264;11.918;2023-06-22T00:03:32;95928.66;;;21.39;78.67
40946;BME280;55635;50.264;11.918;2023-06-22T00:06:13;95929.47;;;21.39;78.90
40946;BME280;55635;50.264;11.918;2023-06-22T00:08:55;95923.25;;;21.39;79.34
40946;BME280;55635;50.264;11.918;2023-06-22T00:11:37;95913.50;;;21.38;78.82
40946;BME280;55635;50.264;11.918;2023-06-22T00:14:18;95921.13;;;21.41;78.78
40946;BME280;55635;50.264;11.918;2023-06-22T00:16:58;95911.31;;;21.35;79.24
40946;BME280;55635;50.264;11.918;2023-06-22T00:19:40;95904.69;;;21.26;80.60
40946;BME280;55635;50.264;11.918;2023-06-22T00:22:22;95910.06;;;21.26;80.62
40946;BME280;55635;50.264;11.918;2023-06-22T00:25:09;95903.63;;;21.27;79.98
40946;BME280;55635;50.264;11.918;2023-06-22T00:27:50;95900.38;;;21.25;80.02
40946;BME280;55635;50.264;11.918;2023-06-22T00:30:32;95913.84;;;21.25;79.04
40946;BME280;55635;50.264;11.918;2023-06-22T00:33:13;95904.69;;;21.09;80.20
40946;BME280;55635;50.264;11.918;2023-06-22T00:35:55;95911.53;;;21.16;79.20
40946;BME280;55635;50.264;11.918;2023-06-22T00:38:36;95913.13;;;21.12;79.90
40946;BME280;55635;50.264;11.918;2023-06-22T00:41:23;95914.53;;;21.03;81.20
40946;BME280;55635;50.264;11.918;2023-06-22T00:44:04;95917.22;;;21.03;82.69
40946;BME280;55635;50.264;11.918;2023-06-22T00:46:46;95914.56;;;20.92;80.99
40946;BME280;55635;50.264;11.918;2023-06-22T00:49:27;95908.13;;;20.93;78.63
40946;BME280;55635;50.264;11.918;2023-06-22T00:52:08;95904.94;;;20.79;77.14
40946;BME280;55635;50.264;11.918;2023-06-22T00:54:54;95898.38;;;20.75;79.64
40946;BME280;55635;50.264;11.918;2023-06-22T00:57:36;95887.03;;;20.73;80.04
40946;BME280;55635;50.264;11.918;2023-06-22T01:00:18;95889.72;;;20.73;79.99
40946;BME280;55635;50.264;11.918;2023-06-22T01:03:00;95881.53;;;20.68;79.50
40946;BME280;55635;50.264;11.918;2023-06-22T01:05:40;95886.91;;;20.68;79.44
40946;BME280;55635;50.264;11.918;2023-06-22T01:08:46;95886.00;;;20.62;81.10
40946;BME280;55635;50.264;11.918;2023-06-22T01:11:39;95882.41;;;20.57;80.80
40946;BME280;55635;50.264;11.918;2023-06-22T01:15:04;95883.31;;;20.62;80.67
40946;BME280;55635;50.264;11.918;2023-06-22T01:17:50;95879.38;;;20.53;80.89
40946;BME280;55635;50.264;11.918;2023-06-22T01:20:34;95878.22;;;20.49;80.18
40946;BME280;55635;50.264;11.918;2023-06-22T01:29:15;95884.91;;;20.47;80.81
40946;BME280;55635;50.264;11.918;2023-06-22T01:31:57;95890.94;;;20.26;80.88
40946;BME280;55635;50.264;11.918;2023-06-22T01:34:40;95900.19;;;20.18;80.65
40946;BME280;55635;50.264;11.918;2023-06-22T01:37:23;95892.81;;;20.14;78.82
40946;BME280;55635;50.264;11.918;2023-06-22T01:40:08;95882.09;;;20.02;81.25
40946;BME280;55635;50.264;11.918;2023-06-22T01:42:50;95890.88;;;19.86;82.43
40946;BME280;55635;50.264;11.918;2023-06-22T01:45:31;95886.91;;;19.77;83.05
40946;BME280;55635;50.264;11.918;2023-06-22T01:48:12;95896.38;;;19.79;81.67
40946;BME280;55635;50.264;11.918;2023-06-22T01:50:53;95900.16;;;19.78;80.92
40946;BME280;55635;50.264;11.918;2023-06-22T01:53:35;95912.31;;;19.69;83.16
40946;BME280;55635;50.264;11.918;2023-06-22T01:56:17;95903.66;;;19.67;85.07
40946;BME280;55635;50.264;11.918;2023-06-22T01:59:54;95897.78;;;19.82;85.02
40946;BME280;55635;50.264;11.918;2023-06-22T02:02:59;95900.72;;;19.80;85.61
40946;BME280;55635;50.264;11.918;2023-06-22T02:05:54;95893.09;;;19.89;84.91
40946;BME280;55635;50.264;11.918;2023-06-22T02:08:46;95904.22;;;19.92;84.68
40946;BME280;55635;50.264;11.918;2023-06-22T02:11:29;95900.47;;;19.93;84.82
40946;BME280;55635;50.264;11.918;2023-06-22T02:14:12;95906.34;;;19.90;84.24
40946;BME280;55635;50.264;11.918;2023-06-22T02:16:54;95898.13;;;19.85;84.43
40946;BME280;55635;50.264;11.918;2023-06-22T02:19:40;95893.22;;;19.82;84.61
40946;BME280;55635;50.264;11.918;2023-06-22T02:22:22;95891.13;;;19.84;83.20
40946;BME280;55635;50.264;11.918;2023-06-22T02:25:03;95879.75;;;19.82;82.31
40946;BME280;55635;50.264;11.918;2023-06-22T02:27:44;95868.19;;;19.82;80.77
40946;BME280;55635;50.264;11.918;2023-06-22T02:30:25;95876.16;;;19.77;81.49
40946;BME280;55635;50.264;11.918;2023-06-22T02:33:06;95868.81;;;19.72;81.76
40946;BME280;55635;50.264;11.918;2023-06-22T02:35:47;95867.28;;;19.65;81.73
40946;BME280;55635;50.264;11.918;2023-06-22T02:38:30;95871.38;;;19.55;82.02
40946;BME280;55635;50.264;11.918;2023-06-22T02:41:15;95878.97;;;19.59;82.46
40946;BME280;55635;50.264;11.918;2023-06-22T02:43:59;95867.38;;;19.58;82.79
40946;BME280;55635;50.264;11.918;2023-06-22T02:46:40;95858.84;;;19.26;85.13
40946;BME280;55635;50.264;11.918;2023-06-22T02:49:21;95875.75;;;19.27;85.97
40946;BME280;55635;50.264;11.918;2023-06-22T02:52:02;95875.38;;;19.41;85.28
40946;BME280;55635;50.264;11.918;2023-06-22T02:54:43;95877.91;;;19.48;84.43
40946;BME280;55635;50.264;11.918;2023-06-22T02:57:27;95879.66;;;19.54;84.27
40946;BME280;55635;50.264;11.918;2023-06-22T03:00:09;95883.78;;;19.57;84.97
40946;BME280;55635;50.264;11.918;2023-06-22T03:02:58;95884.72;;;19.62;84.75
40946;BME280;55635;50.264;11.918;2023-06-22T03:05:39;95884.56;;;19.57;83.70
40946;BME280;55635;50.264;11.918;2023-06-22T03:08:21;95889.38;;;19.55;82.97
40946;BME280;55635;50.264;11.918;2023-06-22T03:11:02;95884.34;;;19.59;81.83
40946;BME280;55635;50.264;11.918;2023-06-22T03:13:43;95867.97;;;19.60;82.34
40946;BME280;55635;50.264;11.918;2023-06-22T03:16:26;95871.13;;;19.45;84.81
40946;BME280;55635;50.264;11.918;2023-06-22T03:19:08;95872.19;;;19.56;83.12
40946;BME280;55635;50.264;11.918;2023-06-22T03:21:49;95897.69;;;19.53;82.81
40946;BME280;55635;50.264;11.918;2023-06-22T03:24:30;95909.25;;;19.54;82.31
40946;BME280;55635;50.264;11.918;2023-06-22T03:27:11;95914.16;;;19.45;83.59
40946;BME280;55635;50.264;11.918;2023-06-22T03:29:52;95930.09;;;19.47;86.52
40946;BME280;55635;50.264;11.918;2023-06-22T03:32:33;95951.59;;;19.47;89.35
40946;BME280;55635;50.264;11.918;2023-06-22T03:35:13;95986.59;;;19.59;91.60
40946;BME280;55635;50.264;11.918;2023-06-22T03:37:55;96027.41;;;19.55;92.82
40946;BME280;55635;50.264;11.918;2023-06-22T03:40:36;96064.13;;;19.50;94.00
40946;BME280;55635;50.264;11.918;2023-06-22T03:43:17;96083.88;;;19.44;97.60
40946;BME280;55635;50.264;11.918;2023-06-22T03:45:57;96090.94;;;19.68;97.09
40946;BME280;55635;50.264;11.918;2023-06-22T03:48:38;96066.56;;;19.93;95.24
40946;BME280;55635;50.264;11.918;2023-06-22T03:51:19;96057.66;;;20.04;93.67
40946;BME280;55635;50.264;11.918;2023-06-22T03:54:01;96072.53;;;20.18;92.89
40946;BME280;55635;50.264;11.918;2023-06-22T03:56:42;96080.03;;;20.28;91.20
40946;BME280;55635;50.264;11.918;2023-06-22T03:59:24;96077.59;;;20.26;90.42
40946;BME280;55635;50.264;11.918;2023-06-22T04:02:05;96068.22;;;20.40;90.25
40946;BME280;55635;50.264;11.918;2023-06-22T04:04:45;96071.38;;;20.49;88.98
40946;BME280;55635;50.264;11.918;2023-06-22T04:07:26;96075.72;;;20.50;88.91
40946;BME280;55635;50.264;11.918;2023-06-22T04:10:07;96037.31;;;20.54;87.30
40946;BME280;55635;50.264;11.918;2023-06-22T04:12:48;95986.81;;;20.50;87.07
40946;BME280;55635;50.264;11.918;2023-06-22T04:15:29;95970.53;;;20.45;86.91
40946;BME280;55635;50.264;11.918;2023-06-22T04:18:10;95987.38;;;20.63;86.19
40946;BME280;55635;50.264;11.918;2023-06-22T04:20:51;96014.78;;;20.60;87.33
40946;BME280;55635;50.264;11.918;2023-06-22T04:23:32;96032.69;;;20.55;89.10
40946;BME280;55635;50.264;11.918;2023-06-22T04:26:13;96032.56;;;20.61;88.87
40946;BME280;55635;50.264;11.918;2023-06-22T04:28:54;96027.66;;;20.70;89.28
40946;BME280;55635;50.264;11.918;2023-06-22T04:31:36;96013.56;;;20.80;89.15
40946;BME280;55635;50.264;11.918;2023-06-22T04:34:17;96006.97;;;20.87;88.83
40946;BME280;55635;50.264;11.918;2023-06-22T04:36:58;96002.50;;;20.93;88.56
40946;BME280;55635;50.264;11.918;2023-06-22T04:39:39;95995.56;;;20.97;87.26
40946;BME280;55635;50.264;11.918;2023-06-22T04:42:20;96000.72;;;20.98;88.01
40946;BME280;55635;50.264;11.918;2023-06-22T04:45:00;95969.44;;;20.97;87.76
40946;BME280;55635;50.264;11.918;2023-06-22T04:47:41;95952.00;;;20.88;87.90
40946;BME280;55635;50.264;11.918;2023-06-22T04:50:22;95938.53;;;20.88;88.46
40946;BME280;55635;50.264;11.918;2023-06-22T04:53:04;95935.22;;;20.58;89.27
40946;BME280;55635;50.264;11.918;2023-06-22T04:55:46;95918.78;;;20.71;89.36
40946;BME280;55635;50.264;11.918;2023-06-22T04:58:29;95893.63;;;20.66;89.18
40946;BME280;55635;50.264;11.918;2023-06-22T05:01:13;95875.91;;;20.41;91.43
40946;BME280;55635;50.264;11.918;2023-06-22T05:03:54;95869.44;;;20.54;93.86
40946;BME280;55635;50.264;11.918;2023-06-22T05:06:36;95865.41;;;20.28;94.54
40946;BME280;55635;50.264;11.918;2023-06-22T05:09:17;95845.63;;;20.23;93.46
40946;BME280;55635;50.264;11.918;2023-06-22T05:11:58;95835.06;;;20.33;94.45
40946;BME280;55635;50.264;11.918;2023-06-22T05:14:42;95836.22;;;20.25;94.42
40946;BME280;55635;50.264;11.918;2023-06-22T05:17:24;95820.34;;;20.24;97.03
40946;BME280;55635;50.264;11.918;2023-06-22T05:20:05;95811.53;;;20.56;94.45
40946;BME280;55635;50.264;11.918;2023-06-22T05:22:47;95806.06;;;20.68;92.80
40946;BME280;55635;50.264;11.918;2023-06-22T05:25:27;95793.75;;;20.72;89.92
40946;BME280;55635;50.264;11.918;2023-06-22T05:28:10;95791.56;;;21.02;87.90
40946;BME280;55635;50.264;11.918;2023-06-22T05:30:51;95769.34;;;21.12;88.28
40946;BME280;55635;50.264;11.918;2023-06-22T05:33:32;95761.81;;;21.31;85.94
40946;BME280;55635;50.264;11.918;2023-06-22T05:36:14;95777.59;;;21.60;83.99
40946;BME280;55635;50.264;11.918;2023-06-22T05:38:57;95758.44;;;21.62;82.34
40946;BME280;55635;50.264;11.918;2023-06-22T05:41:39;95771.22;;;22.10;80.19
40946;BME280;55635;50.264;11.918;2023-06-22T05:44:19;95761.31;;;22.20;77.86
40946;BME280;55635;50.264;11.918;2023-06-22T05:47:00;95768.78;;;22.35;76.83
40946;BME280;55635;50.264;11.918;2023-06-22T05:49:41;95775.31;;;22.66;76.94
40946;BME280;55635;50.264;11.918;2023-06-22T05:52:22;95778.03;;;22.98;75.46
40946;BME280;55635;50.264;11.918;2023-06-22T05:55:04;95772.78;;;22.81;74.99
40946;BME280;55635;50.264;11.918;2023-06-22T05:57:45;95770.81;;;23.08;73.92
40946;BME280;55635;50.264;11.918;2023-06-22T06:00:26;95772.06;;;23.33;73.98
40946;BME280;55635;50.264;11.918;2023-06-22T06:03:07;95765.22;;;23.25;72.73
40946;BME280;55635;50.264;11.918;2023-06-22T06:05:48;95766.47;;;23.39;72.06
40946;BME280;55635;50.264;11.918;2023-06-22T06:08:30;95775.66;;;23.90;70.67
40946;BME280;55635;50.264;11.918;2023-06-22T06:11:11;95779.53;;;24.09;69.02
40946;BME280;55635;50.264;11.918;2023-06-22T06:13:52;95782.22;;;24.09;68.63
40946;BME280;55635;50.264;11.918;2023-06-22T06:16:33;95797.09;;;24.84;65.85
40946;BME280;55635;50.264;11.918;2023-06-22T06:19:14;95810.09;;;25.48;63.14
40946;BME280;55635;50.264;11.918;2023-06-22T06:21:55;95803.31;;;25.45;61.52
40946;BME280;55635;50.264;11.918;2023-06-22T06:24:35;95801.63;;;25.89;60.69
40946;BME280;55635;50.264;11.918;2023-06-22T06:27:16;95806.94;;;26.84;59.25
40946;BME280;55635;50.264;11.918;2023-06-22T06:30:00;95793.34;;;27.18;57.05
40946;BME280;55635;50.264;11.918;2023-06-22T06:32:42;95801.03;;;27.44;56.34
40946;BME280;55635;50.264;11.918;2023-06-22T06:35:23;95807.03;;;27.70;54.58
40946;BME280;55635;50.264;11.918;2023-06-22T06:38:04;95804.50;;;28.26;52.15
40946;BME280;55635;50.264;11.918;2023-06-22T06:40:45;95813.28;;;28.23;53.12
40946;BME280;55635;50.264;11.918;2023-06-22T06:43:27;95819.00;;;28.45;52.20
40946;BME280;55635;50.264;11.918;2023-06-22T06:46:09;95809.59;;;28.75;50.98
40946;BME280;55635;50.264;11.918;2023-06-22T06:48:50;95811.19;;;28.57;50.04
40946;BME280;55635;50.264;11.918;2023-06-22T06:51:31;95823.59;;;28.26;53.01
40946;BME280;55635;50.264;11.918;2023-06-22T06:54:11;95813.06;;;29.18;50.04
40946;BME280;55635;50.264;11.918;2023-06-22T06:56:53;95822.63;;;29.02;50.23
40946;BME280;55635;50.264;11.918;2023-06-22T06:59:34;95814.84;;;29.28;48.60
40946;BME280;55635;50.264;11.918;2023-06-22T07:02:16;95818.38;;;29.28;47.81
40946;BME280;55635;50.264;11.918;2023-06-22T07:04:56;95810.44;;;29.45;47.68
40946;BME280;55635;50.264;11.918;2023-06-22T07:07:38;95803.38;;;30.31;47.08
40946;BME280;55635;50.264;11.918;2023-06-22T07:10:19;95803.88;;;30.19;46.40
40946;BME280;55635;50.264;11.918;2023-06-22T07:13:00;95793.06;;;30.42;45.58
40946;BME280;55635;50.264;11.918;2023-06-22T07:15:41;95804.09;;;29.96;47.06
40946;BME280;55635;50.264;11.918;2023-06-22T07:18:23;95802.47;;;30.49;47.45
40946;BME280;55635;50.264;11.918;2023-06-22T07:21:04;95799.16;;;31.24;45.75
40946;BME280;55635;50.264;11.918;2023-06-22T07:23:47;95799.81;;;30.31;46.78
40946;BME280;55635;50.264;11.918;2023-06-22T07:26:28;95792.50;;;29.21;47.49
40946;BME280;55635;50.264;11.918;2023-06-22T07:29:09;95798.97;;;29.76;46.70
40946;BME280;55635;50.264;11.918;2023-06-22T07:31:50;95794.25;;;30.22;46.96
40946;BME280;55635;50.264;11.918;2023-06-22T07:34:36;95790.41;;;30.64;44.78
40946;BME280;55635;50.264;11.918;2023-06-22T07:37:17;95783.75;;;31.14;44.61
40946;BME280;55635;50.264;11.918;2023-06-22T07:39:58;95787.94;;;30.76;44.72
40946;BME280;55635;50.264;11.918;2023-06-22T07:42:39;95777.31;;;30.61;45.42
40946;BME280;55635;50.264;11.918;2023-06-22T07:45:20;95785.63;;;30.92;44.76
40946;BME280;55635;50.264;11.918;2023-06-22T07:48:02;95789.81;;;30.26;45.78
40946;BME280;55635;50.264;11.918;2023-06-22T07:50:42;95775.09;;;30.49;45.82
40946;BME280;55635;50.264;11.918;2023-06-22T07:53:24;95784.03;;;30.00;46.04
40946;BME280;55635;50.264;11.918;2023-06-22T07:56:04;95771.19;;;30.77;44.43
40946;BME280;55635;50.264;11.918;2023-06-22T07:58:48;95777.09;;;31.29;44.14
40946;BME280;55635;50.264;11.918;2023-06-22T08:01:29;95774.00;;;31.22;43.83
40946;BME280;55635;50.264;11.918;2023-06-22T08:04:10;95769.19;;;31.50;44.27
40946;BME280;55635;50.264;11.918;2023-06-22T08:06:50;95764.88;;;31.57;43.64
40946;BME280;55635;50.264;11.918;2023-06-22T08:09:32;95761.78;;;31.06;43.50
40946;BME280;55635;50.264;11.918;2023-06-22T08:12:13;95765.50;;;31.32;44.49
40946;BME280;55635;50.264;11.918;2023-06-22T08:14:54;95769.72;;;30.94;45.58
40946;BME280;55635;50.264;11.918;2023-06-22T08:17:37;95760.63;;;30.85;44.33
40946;BME280;55635;50.264;11.918;2023-06-22T08:20:18;95761.84;;;31.37;43.95
40946;BME280;55635;50.264;11.918;2023-06-22T08:22:59;95763.78;;;31.58;43.83
40946;BME280;55635;50.264;11.918;2023-06-22T08:25:46;95766.66;;;31.93;42.57
40946;BME280;55635;50.264;11.918;2023-06-22T08:28:28;95763.00;;;31.66;43.75
40946;BME280;55635;50.264;11.918;2023-06-22T08:31:09;95750.25;;;31.62;43.90
40946;BME280;55635;50.264;11.918;2023-06-22T08:33:53;95743.53;;;31.76;44.77
40946;BME280;55635;50.264;11.918;2023-06-22T08:36:33;95751.72;;;29.89;46.97
40946;BME280;55635;50.264;11.918;2023-06-22T08:39:19;95747.47;;;30.73;49.40
40946;BME280;55635;50.264;11.918;2023-06-22T08:42:01;95743.31;;;30.98;45.36
40946;BME280;55635;50.264;11.918;2023-06-22T08:44:42;95760.50;;;30.40;45.98
40946;BME280;55635;50.264;11.918;2023-06-22T08:47:23;95772.28;;;30.27;48.43
40946;BME280;55635;50.264;11.918;2023-06-22T08:50:05;95760.41;;;30.32;45.75
40946;BME280;55635;50.264;11.918;2023-06-22T08:52:47;95762.75;;;30.74;45.28
40946;BME280;55635;50.264;11.918;2023-06-22T08:55:28;95759.53;;;31.08;45.26
40946;BME280;55635;50.264;11.918;2023-06-22T08:58:09;95751.53;;;31.64;43.74
40946;BME280;55635;50.264;11.918;2023-06-22T09:00:49;95750.03;;;30.69;45.56
40946;BME280;55635;50.264;11.918;2023-06-22T09:03:32;95756.53;;;30.96;44.07
40946;BME280;55635;50.264;11.918;2023-06-22T09:06:13;95749.56;;;30.13;46.54
40946;BME280;55635;50.264;11.918;2023-06-22T09:08:55;95733.84;;;30.32;47.06
40946;BME280;55635;50.264;11.918;2023-06-22T09:11:36;95732.78;;;30.55;46.07
40946;BME280;55635;50.264;11.918;2023-06-22T09:14:17;95733.78;;;31.40;44.46
40946;BME280;55635;50.264;11.918;2023-06-22T09:16:57;95740.16;;;30.19;46.53
40946;BME280;55635;50.264;11.918;2023-06-22T09:19:38;95739.63;;;30.31;49.13
40946;BME280;55635;50.264;11.918;2023-06-22T09:22:20;95730.16;;;30.86;46.97
40946;BME280;55635;50.264;11.918;2023-06-22T09:25:01;95730.25;;;31.17;45.52
40946;BME280;55635;50.264;11.918;2023-06-22T09:27:43;95732.78;;;30.55;46.47
40946;BME280;55635;50.264;11.918;2023-06-22T09:30:24;95723.56;;;31.54;44.13
40946;BME280;55635;50.264;11.918;2023-06-22T09:33:05;95713.84;;;31.78;42.07
40946;BME280;55635;50.264;11.918;2023-06-22T09:35:46;95715.19;;;31.28;44.57
40946;BME280;55635;50.264;11.918;2023-06-22T09:38:27;95713.00;;;32.17;42.42
40946;BME280;55635;50.264;11.918;2023-06-22T09:41:07;95703.56;;;32.66;41.84
40946;BME280;55635;50.264;11.918;2023-06-22T09:43:48;95698.72;;;32.98;40.63
40946;BME280;55635;50.264;11.918;2023-06-22T09:46:29;95702.94;;;33.76;39.24
40946;BME280;55635;50.264;11.918;2023-06-22T09:49:10;95705.47;;;32.31;41.09
40946;BME280;55635;50.264;11.918;2023-06-22T09:51:51;95696.91;;;31.85;43.02
40946;BME280;55635;50.264;11.918;2023-06-22T09:54:33;95702.91;;;32.52;43.11
40946;BME280;55635;50.264;11.918;2023-06-22T09:57:14;95699.53;;;33.24;39.26
40946;BME280;55635;50.264;11.918;2023-06-22T09:59:55;95694.25;;;33.65;38.61
40946;BME280;55635;50.264;11.918;2023-06-22T10:02:35;95698.16;;;33.93;38.60
40946;BME280;55635;50.264;11.918;2023-06-22T10:05:16;95686.75;;;32.85;40.54
40946;BME280;55635;50.264;11.918;2023-06-22T10:07:57;95694.47;;;32.23;40.01
40946;BME280;55635;50.264;11.918;2023-06-22T10:10:38;95701.91;;;33.34;39.76
40946;BME280;55635;50.264;11.918;2023-06-22T10:13:19;95694.84;;;33.71;38.41
40946;BME280;55635;50.264;11.918;2023-06-22T10:16:00;95700.97;;;32.78;40.66
40946;BME280;55635;50.264;11.918;2023-06-22T10:18:41;95703.19;;;32.16;41.20
40946;BME280;55635;50.264;11.918;2023-06-22T10:21:22;95690.91;;;33.34;38.71
40946;BME280;55635;50.264;11.918;2023-06-22T10:24:03;95685.72;;;33.87;37.00
40946;BME280;55635;50.264;11.918;2023-06-22T10:26:46;95677.25;;;34.51;36.56
40946;BME280;55635;50.264;11.918;2023-06-22T10:29:27;95680.19;;;35.08;35.83
40946;BME280;55635;50.264;11.918;2023-06-22T10:32:08;95671.81;;;34.84;35.23
40946;BME280;55635;50.264;11.918;2023-06-22T10:34:49;95670.97;;;34.92;33.72
40946;BME280;55635;50.264;11.918;2023-06-22T10:37:30;95668.00;;;33.04;38.36
40946;BME280;55635;50.264;11.918;2023-06-22T10:40:13;95656.88;;;34.23;37.13
40946;BME280;55635;50.264;11.918;2023-06-22T10:42:54;95662.03;;;33.11;40.16
40946;BME280;55635;50.264;11.918;2023-06-22T10:45:35;95672.25;;;31.94;40.99
40946;BME280;55635;50.264;11.918;2023-06-22T10:48:16;95659.28;;;33.11;41.09
40946;BME280;55635;50.264;11.918;2023-06-22T10:50:57;95654.41;;;32.05;42.46
40946;BME280;55635;50.264;11.918;2023-06-22T10:53:38;95660.41;;;32.50;43.02
40946;BME280;55635;50.264;11.918;2023-06-22T10:56:19;95657.69;;;32.67;40.07
40946;BME280;55635;50.264;11.918;2023-06-22T10:59:00;95662.66;;;33.16;37.94
40946;BME280;55635;50.264;11.918;2023-06-22T11:01:42;95654.66;;;33.40;38.50
40946;BME280;55635;50.264;11.918;2023-06-22T11:04:23;95648.91;;;34.92;34.88
40946;BME280;55635;50.264;11.918;2023-06-22T11:07:04;95655.69;;;34.53;36.57
40946;BME280;55635;50.264;11.918;2023-06-22T11:09:46;95651.69;;;35.04;35.55
40946;BME280;55635;50.264;11.918;2023-06-22T11:12:27;95645.75;;;35.14;35.23
40946;BME280;55635;50.264;11.918;2023-06-22T11:15:08;95643.78;;;34.40;35.25
40946;BME280;55635;50.264;11.918;2023-06-22T11:17:50;95634.38;;;34.41;36.24
40946;BME280;55635;50.264;11.918;2023-06-22T11:20:31;95635.34;;;34.66;35.92
40946;BME280;55635;50.264;11.918;2023-06-22T11:23:14;95633.44;;;34.17;38.69
40946;BME280;55635;50.264;11.918;2023-06-22T11:25:55;95627.25;;;33.61;37.85
40946;BME280;55635;50.264;11.918;2023-06-22T11:28:36;95620.53;;;34.91;36.05
40946;BME280;55635;50.264;11.918;2023-06-22T11:31:17;95622.00;;;35.22;35.67
40946;BME280;55635;50.264;11.918;2023-06-22T11:33:58;95605.75;;;36.01;36.47
40946;BME280;55635;50.264;11.918;2023-06-22T11:36:39;95606.44;;;35.86;34.15
40946;BME280;55635;50.264;11.918;2023-06-22T11:39:20;95609.41;;;33.76;38.86
40946;BME280;55635;50.264;11.918;2023-06-22T11:42:01;95587.84;;;35.59;36.32
40946;BME280;55635;50.264;11.918;2023-06-22T11:44:42;95602.19;;;35.77;32.58
40946;BME280;55635;50.264;11.918;2023-06-22T11:47:24;95607.06;;;37.27;32.33
40946;BME280;55635;50.264;11.918;2023-06-22T11:50:06;95593.84;;;37.99;30.87
40946;BME280;55635;50.264;11.918;2023-06-22T11:52:47;95599.06;;;36.27;35.12
40946;BME280;55635;50.264;11.918;2023-06-22T11:55:28;95597.66;;;35.48;33.13
40946;BME280;55635;50.264;11.918;2023-06-22T11:58:09;95587.16;;;35.17;33.56
40946;BME280;55635;50.264;11.918;2023-06-22T12:00:50;95598.56;;;35.28;34.63
40946;BME280;55635;50.264;11.918;2023-06-22T12:03:32;95582.72;;;35.97;34.28
40946;BME280;55635;50.264;11.918;2023-06-22T12:06:13;95578.56;;;35.19;35.04
40946;BME280;55635;50.264;11.918;2023-06-22T12:08:54;95570.09;;;35.60;35.15
40946;BME280;55635;50.264;11.918;2023-06-22T12:11:35;95558.81;;;36.41;31.84
40946;BME280;55635;50.264;11.918;2023-06-22T12:14:16;95566.19;;;35.73;32.33
40946;BME280;55635;50.264;11.918;2023-06-22T12:16:57;95561.34;;;36.74;32.06
40946;BME280;55635;50.264;11.918;2023-06-22T12:19:37;95563.22;;;37.14;30.98
40946;BME280;55635;50.264;11.918;2023-06-22T12:22:18;95558.47;;;35.55;31.75
40946;BME280;55635;50.264;11.918;2023-06-22T12:25:00;95553.78;;;36.31;32.39
40946;BME280;55635;50.264;11.918;2023-06-22T12:27:40;95550.72;;;36.21;34.10
40946;BME280;55635;50.264;11.918;2023-06-22T12:30:21;95540.28;;;36.02;32.62
40946;BME280;55635;50.264;11.918;2023-06-22T12:33:02;95555.44;;;34.66;34.35
40946;BME280;55635;50.264;11.918;2023-06-22T12:35:44;95540.41;;;35.45;33.28
40946;BME280;55635;50.264;11.918;2023-06-22T12:38:25;95539.34;;;35.01;33.33
40946;BME280;55635;50.264;11.918;2023-06-22T12:41:06;95536.44;;;34.85;32.03
40946;BME280;55635;50.264;11.918;2023-06-22T12:43:47;95533.47;;;36.12;33.29
40946;BME280;55635;50.264;11.918;2023-06-22T12:46:28;95523.47;;;36.75;32.38
40946;BME280;55635;50.264;11.918;2023-06-22T12:49:10;95518.22;;;35.53;31.42
40946;BME280;55635;50.264;11.918;2023-06-22T12:51:51;95528.81;;;34.50;34.44
40946;BME280;55635;50.264;11.918;2023-06-22T12:54:32;95511.94;;;35.29;32.18
40946;BME280;55635;50.264;11.918;2023-06-22T12:57:13;95509.16;;;35.41;33.49
40946;BME280;55635;50.264;11.918;2023-06-22T12:59:54;95509.31;;;35.96;32.47
40946;BME280;55635;50.264;11.918;2023-06-22T13:02:35;95506.75;;;36.55;31.28
40946;BME280;55635;50.264;11.918;2023-06-22T13:05:16;95514.56;;;35.74;34.63
40946;BME280;55635;50.264;11.918;2023-06-22T13:07:57;95507.97;;;35.06;36.73
40946;BME280;55635;50.264;11.918;2023-06-22T13:10:37;95511.16;;;34.95;34.22
40946;BME280;55635;50.264;11.918;2023-06-22T13:13:18;95503.47;;;34.23;33.73
40946;BME280;55635;50.264;11.918;2023-06-22T13:15:59;95505.38;;;34.11;37.42
40946;BME280;55635;50.264;11.918;2023-06-22T13:18:40;95502.25;;;33.91;35.41
40946;BME280;55635;50.264;11.918;2023-06-22T13:21:21;95497.97;;;34.03;34.82
40946;BME280;55635;50.264;11.918;2023-06-22T13:24:02;95501.13;;;34.34;36.37
40946;BME280;55635;50.264;11.918;2023-06-22T13:26:44;95492.88;;;34.67;34.59
40946;BME280;55635;50.264;11.918;2023-06-22T13:29:25;95491.06;;;34.17;33.59
40946;BME280;55635;50.264;11.918;2023-06-22T13:32:06;95480.41;;;34.49;34.06
40946;BME280;55635;50.264;11.918;2023-06-22T13:34:47;95480.44;;;33.86;36.18
40946;BME280;55635;50.264;11.918;2023-06-22T13:37:28;95469.59;;;34.56;35.56
40946;BME280;55635;50.264;11.918;2023-06-22T13:40:09;95454.31;;;35.03;32.83
40946;BME280;55635;50.264;11.918;2023-06-22T13:42:50;95458.75;;;34.59;37.95
40946;BME280;55635;50.264;11.918;2023-06-22T13:45:32;95461.53;;;34.06;36.08
40946;BME280;55635;50.264;11.918;2023-06-22T13:48:13;95451.41;;;34.63;32.91
40946;BME280;55635;50.264;11.918;2023-06-22T13:50:54;95458.06;;;33.76;34.57
40946;BME280;55635;50.264;11.918;2023-06-22T13:53:35;95456.75;;;34.47;35.03
40946;BME280;55635;50.264;11.918;2023-06-22T13:56:16;95444.53;;;34.81;33.26
40946;BME280;55635;50.264;11.918;2023-06-22T13:58:57;95438.38;;;35.09;32.96
40946;BME280;55635;50.264;11.918;2023-06-22T14:01:38;95438.91;;;35.02;33.15
40946;BME280;55635;50.264;11.918;2023-06-22T14:04:23;95434.53;;;35.74;30.17
40946;BME280;55635;50.264;11.918;2023-06-22T14:07:05;95430.34;;;35.80;34.60
40946;BME280;55635;50.264;11.918;2023-06-22T14:09:46;95417.63;;;35.51;32.70
40946;BME280;55635;50.264;11.918;2023-06-22T14:12:27;95419.97;;;35.89;32.77